Observation data for Turkey on 02/13/2018      Previous  Date  Next       Current Mesonet Observations  Soil Data  Daily Summary Page  Observations in Plain Language
KTUR 130600Z 13006KT M02/M10 A303 RMK A01 T10231101  RH  056%=      5-min Rain = 0
KTUR 130605Z 12005KT M03/M10 A303 RMK A01 T10251101  RH  057%=      5-min Rain = 0
KTUR 130610Z 10004KT M03/M10 A3031 RMK A01 T10261100  RH  057%=      5-min Rain = 0
KTUR 130615Z 09003KT M03/M10 A3031 RMK A01 T10281102  RH  057%=      5-min Rain = 0
KTUR 130620Z 09001KT M03/M10 A303 RMK A01 T10291103  RH  058%=      5-min Rain = 0
KTUR 130625Z 07000KT M03/M10 A3031 RMK A01 T10281102  RH  058%=      5-min Rain = 0
KTUR 130630Z 05001KT M03/M10 A3031 RMK A01 T10291103  RH  057%=      5-min Rain = 0
KTUR 130635Z 05001KT M03/M10 A3031 RMK A01 T10291102  RH  058%=      5-min Rain = 0
KTUR 130640Z 04002KT M03/M10 A3031 RMK A01 T10291102  RH  058%=      5-min Rain = 0
KTUR 130645Z 04001KT M03/M10 A3031 RMK A01 T10281100  RH  058%=      5-min Rain = 0
KTUR 130650Z 04001KT M03/M10 A3031 RMK A01 T10281099  RH  059%=      5-min Rain = 0
KTUR 130655Z 06002KT M03/M10 A303 RMK A01 T10261096  RH  059%=      5-min Rain = 0
KTUR 130700Z 09003KT M02/M09 A303 RMK A01 T10221093  RH  059%=      5-min Rain = 0
KTUR 130705Z 09003KT M02/M09 A303 RMK A01 T10211092  RH  059%=      5-min Rain = 0
KTUR 130710Z 08004KT M02/M09 A303 RMK A01 T10221092  RH  059%=      5-min Rain = 0
KTUR 130715Z 09004KT M02/M09 A303 RMK A01 T10231093  RH  059%=      5-min Rain = 0
KTUR 130720Z 09004KT M02/M09 A303 RMK A01 T10221093  RH  059%=      5-min Rain = 0
KTUR 130725Z 08003KT M02/M09 A303 RMK A01 T10241094  RH  059%=      5-min Rain = 0
KTUR 130730Z 08003KT M03/M10 A3029 RMK A01 T10261097  RH  059%=      5-min Rain = 0
KTUR 130735Z 08003KT M03/M10 A3029 RMK A01 T10281096  RH  060%=      5-min Rain = 0
KTUR 130740Z 08003KT M03/M09 A303 RMK A01 T10281093  RH  062%=      5-min Rain = 0
KTUR 130745Z 08003KT M03/M09 A303 RMK A01 T10271091  RH  063%=      5-min Rain = 0
KTUR 130750Z 09003KT M03/M09 A303 RMK A01 T10271089  RH  063%=      5-min Rain = 0
KTUR 130755Z 09002KT M03/M09 A303 RMK A01 T10271090  RH  063%=      5-min Rain = 0
KTUR 130800Z 09003KT M03/M09 A303 RMK A01 T10281089  RH  063%=      5-min Rain = 0
KTUR 130805Z 09002KT M03/M09 A303 RMK A01 T10281089  RH  064%=      5-min Rain = 0
KTUR 130810Z 09001KT M03/M09 A303 RMK A01 T10291090  RH  063%=      5-min Rain = 0
KTUR 130815Z 09002KT M03/M09 A303 RMK A01 T10301090  RH  064%=      5-min Rain = 0
KTUR 130820Z 09002KT M03/M09 A303 RMK A01 T10301088  RH  065%=      5-min Rain = 0
KTUR 130825Z 09001KT M03/M09 A303 RMK A01 T10291088  RH  065%=      5-min Rain = 0
KTUR 130830Z 09001KT M03/M09 A303 RMK A01 T10291087  RH  065%=      5-min Rain = 0
KTUR 130835Z 09001KT M03/M09 A303 RMK A01 T10301087  RH  065%=      5-min Rain = 0
KTUR 130840Z 09000KT M03/M09 A303 RMK A01 T10301087  RH  065%=      5-min Rain = 0
KTUR 130845Z 09001KT M03/M09 A3029 RMK A01 T10311087  RH  066%=      5-min Rain = 0
KTUR 130850Z 09001KT M03/M09 A3029 RMK A01 T10311087  RH  066%=      5-min Rain = 0
KTUR 130855Z 09002KT M03/M09 A3029 RMK A01 T10311085  RH  067%=      5-min Rain = 0
KTUR 130900Z 09002KT M03/M08 A3029 RMK A01 T10301083  RH  067%=      5-min Rain = 0
KTUR 130905Z 09002KT M03/M08 A3029 RMK A01 T10291082  RH  068%=      5-min Rain = 0
KTUR 130910Z 09002KT M03/M08 A3029 RMK A01 T10291081  RH  068%=      5-min Rain = 0
KTUR 130915Z 09001KT M03/M08 A3029 RMK A01 T10291083  RH  067%=      5-min Rain = 0
KTUR 130920Z 06000KT M03/M09 A3029 RMK A01 T10341088  RH  067%=      5-min Rain = 0
KTUR 130925Z 05001KT M04/M09 A3029 RMK A01 T10381090  RH  068%=      5-min Rain = 0
KTUR 130930Z 04002KT M04/M09 A3029 RMK A01 T10411091  RH  069%=      5-min Rain = 0
KTUR 130935Z 04002KT M05/M10 A3029 RMK A01 T10451095  RH  069%=      5-min Rain = 0
KTUR 130940Z 03003KT M05/M09 A3029 RMK A01 T10481093  RH  071%=      5-min Rain = 0
KTUR 130945Z 02004KT M05/M09 A3029 RMK A01 T10481092  RH  072%=      5-min Rain = 0
KTUR 130950Z 02003KT M05/M09 A3029 RMK A01 T10491092  RH  073%=      5-min Rain = 0
KTUR 130955Z 02003KT M05/M09 A3028 RMK A01 T10491091  RH  073%=      5-min Rain = 0
KTUR 131000Z 02003KT M05/M09 A3028 RMK A01 T10491090  RH  074%=      5-min Rain = 0
KTUR 131005Z 02002KT M05/M09 A3029 RMK A01 T10471088  RH  074%=      5-min Rain = 0
KTUR 131010Z 02002KT M04/M09 A3029 RMK A01 T10441086  RH  074%=      5-min Rain = 0
KTUR 131015Z 02001KT M04/M09 A3029 RMK A01 T10441086  RH  073%=      5-min Rain = 0
KTUR 131020Z 02001KT M04/M09 A3029 RMK A01 T10431085  RH  073%=      5-min Rain = 0
KTUR 131025Z 02001KT M04/M08 A3029 RMK A01 T10431083  RH  075%=      5-min Rain = 0
KTUR 131030Z 01002KT M04/M08 A3029 RMK A01 T10401081  RH  074%=      5-min Rain = 0
KTUR 131035Z 01002KT M04/M08 A303 RMK A01 T10421083  RH  074%=      5-min Rain = 0
KTUR 131040Z 01001KT M04/M08 A3029 RMK A01 T10431083  RH  074%=      5-min Rain = 0
KTUR 131045Z 01001KT M04/M08 A303 RMK A01 T10431081  RH  075%=      5-min Rain = 0
KTUR 131050Z 01001KT M04/M08 A303 RMK A01 T10421082  RH  075%=      5-min Rain = 0
KTUR 131055Z 01000KT M04/M08 A303 RMK A01 T10401078  RH  076%=      5-min Rain = 0
KTUR 131100Z 01000KT M04/M07 A303 RMK A01 T10351073  RH  076%=      5-min Rain = 0
KTUR 131105Z 00000KT M03/M07 A303 RMK A01 T10311068  RH  076%=      5-min Rain = 0
KTUR 131110Z 00000KT M03/M07 A303 RMK A01 T10271066  RH  076%=      5-min Rain = 0
KTUR 131115Z 00000KT M02/M06 A303 RMK A01 T10241064  RH  075%=      5-min Rain = 0
KTUR 131120Z 01000KT M02/M06 A303 RMK A01 T10211063  RH  074%=      5-min Rain = 0
KTUR 131125Z 01000KT M02/M06 A303 RMK A01 T10191063  RH  073%=      5-min Rain = 0
KTUR 131130Z 01000KT M02/M06 A303 RMK A01 T10181064  RH  072%=      5-min Rain = 0
KTUR 131135Z 01000KT M02/M07 A303 RMK A01 T10171068  RH  069%=      5-min Rain = 0
KTUR 131140Z 01001KT M02/M07 A303 RMK A01 T10171070  RH  068%=      5-min Rain = 0
KTUR 131145Z 01002KT M02/M08 A3029 RMK A01 T10201078  RH  065%=      5-min Rain = 0
KTUR 131150Z 01002KT M02/M08 A303 RMK A01 T10241082  RH  065%=      5-min Rain = 0
KTUR 131155Z 01002KT M03/M08 A303 RMK A01 T10271083  RH  066%=      5-min Rain = 0
KTUR 131200Z 01003KT M03/M08 A303 RMK A01 T10281082  RH  067%=      5-min Rain = 0
KTUR 131205Z 01003KT M03/M08 A303 RMK A01 T10291084  RH  067%=      5-min Rain = 0
KTUR 131210Z 01002KT M03/M08 A3031 RMK A01 T10301083  RH  068%=      5-min Rain = 0
KTUR 131215Z 01002KT M03/M08 A3031 RMK A01 T10301083  RH  068%=      5-min Rain = 0
KTUR 131220Z 01002KT M03/M08 A3031 RMK A01 T10291080  RH  069%=      5-min Rain = 0
KTUR 131225Z 01001KT M03/M08 A3031 RMK A01 T10271077  RH  069%=      5-min Rain = 0
KTUR 131230Z 01001KT M03/M08 A3031 RMK A01 T10271078  RH  069%=      5-min Rain = 0
KTUR 131235Z 01000KT M03/M08 A3031 RMK A01 T10281075  RH  070%=      5-min Rain = 0
KTUR 131240Z 01000KT M03/M07 A3031 RMK A01 T10271071  RH  073%=      5-min Rain = 0
KTUR 131245Z 01000KT M03/M07 A3031 RMK A01 T10261069  RH  073%=      5-min Rain = 0
KTUR 131250Z 00000KT M03/M07 A3031 RMK A01 T10261069  RH  073%=      5-min Rain = 0
KTUR 131255Z 00000KT M03/M07 A3031 RMK A01 T10261069  RH  073%=      5-min Rain = 0
KTUR 131300Z 01000KT M03/M07 A3031 RMK A01 T10261069  RH  073%=      5-min Rain = 0
KTUR 131305Z 00000KT M03/M07 A3031 RMK A01 T10261070  RH  073%=      5-min Rain = 0
KTUR 131310Z 08001KT M03/M07 A3031 RMK A01 T10261070  RH  072%=      5-min Rain = 0
KTUR 131315Z 10003KT M03/M07 A3031 RMK A01 T10271072  RH  072%=      5-min Rain = 0
KTUR 131320Z 11003KT M03/M08 A3031 RMK A01 T10301076  RH  071%=      5-min Rain = 0
KTUR 131325Z 11003KT M03/M08 A3031 RMK A01 T10331077  RH  073%=      5-min Rain = 0
KTUR 131330Z 12003KT M03/M08 A3031 RMK A01 T10341078  RH  073%=      5-min Rain = 0
KTUR 131335Z 13002KT M04/M08 A3031 RMK A01 T10361079  RH  073%=      5-min Rain = 0
KTUR 131340Z 13001KT M04/M08 A3032 RMK A01 T10361078  RH  074%=      5-min Rain = 0
KTUR 131345Z 13001KT M04/M08 A3032 RMK A01 T10361077  RH  074%=      5-min Rain = 0
KTUR 131350Z 13001KT M03/M08 A3032 RMK A01 T10341075  RH  074%=      5-min Rain = 0
KTUR 131355Z 13001KT M03/M07 A3032 RMK A01 T10331074  RH  074%=      5-min Rain = 0
KTUR 131400Z 13000KT M03/M08 A3032 RMK A01 T10321076  RH  073%=      5-min Rain = 0
KTUR 131405Z 13000KT M03/M08 A3033 RMK A01 T10321076  RH  073%=      5-min Rain = 0
KTUR 131410Z 13001KT M03/M08 A3033 RMK A01 T10321077  RH  072%=      5-min Rain = 0
KTUR 131415Z 00000KT M03/M08 A3033 RMK A01 T10311076  RH  072%=      5-min Rain = 0
KTUR 131420Z 00000KT M03/M07 A3033 RMK A01 T10291074  RH  072%=      5-min Rain = 0
KTUR 131425Z 13000KT M03/M07 A3033 RMK A01 T10261072  RH  071%=      5-min Rain = 0
KTUR 131430Z 15002KT M02/M07 A3033 RMK A01 T10241072  RH  070%=      5-min Rain = 0
KTUR 131435Z 15002KT M02/M07 A3033 RMK A01 T10231072  RH  070%=      5-min Rain = 0
KTUR 131440Z 14002KT M02/M07 A3033 RMK A01 T10221071  RH  070%=      5-min Rain = 0
KTUR 131445Z 15002KT M02/M07 A3033 RMK A01 T10211071  RH  069%=      5-min Rain = 0
KTUR 131450Z 16003KT M02/M07 A3034 RMK A01 T10201068  RH  070%=      5-min Rain = 0
KTUR 131455Z 17002KT M02/M07 A3034 RMK A01 T10191066  RH  071%=      5-min Rain = 0
KTUR 131500Z 17002KT M02/M06 A3035 RMK A01 T10161063  RH  071%=      5-min Rain = 0
KTUR 131505Z 17002KT M01/M06 A3035 RMK A01 T10141064  RH  070%=      5-min Rain = 0
KTUR 131510Z 16003KT M01/M06 A3034 RMK A01 T10131064  RH  069%=      5-min Rain = 0
KTUR 131515Z 15003KT M01/M06 A3035 RMK A01 T10121061  RH  070%=      5-min Rain = 0
KTUR 131520Z 15002KT M01/M06 A3035 RMK A01 T10101058  RH  071%=      5-min Rain = 0
KTUR 131525Z 16002KT M01/M06 A3035 RMK A01 T10071056  RH  070%=      5-min Rain = 0
KTUR 131530Z 16003KT M01/M05 A3035 RMK A01 T10061054  RH  071%=      5-min Rain = 0
KTUR 131535Z 15004KT M01/M05 A3035 RMK A01 T10061052  RH  072%=      5-min Rain = 0
KTUR 131540Z 16004KT M01/M05 A3035 RMK A01 T10061053  RH  071%=      5-min Rain = 0
KTUR 131545Z 17002KT M01/M05 A3035 RMK A01 T10051053  RH  071%=      5-min Rain = 0
KTUR 131550Z 19003KT M00/M05 A3035 RMK A01 T10041053  RH  070%=      5-min Rain = 0
KTUR 131555Z 18004KT M00/M05 A3035 RMK A01 T10021053  RH  069%=      5-min Rain = 0
KTUR 131600Z 19003KT 00/05 A3036 RMK A01 T00-00-51  RH  069%=      5-min Rain = 0
KTUR 131605Z 19004KT 00/M05 A3036 RMK A01 T00021049  RH  069%=      5-min Rain = 0
KTUR 131610Z 18004KT 01/M05 A3036 RMK A01 T00051047  RH  069%=      5-min Rain = 0
KTUR 131615Z 18004KT 01/M05 A3036 RMK A01 T00081046  RH  068%=      5-min Rain = 0
KTUR 131620Z 18005KT 01/M04 A3036 RMK A01 T00141042  RH  067%=      5-min Rain = 0
KTUR 131625Z 16004KT 02/M04 A3037 RMK A01 T00211040  RH  065%=      5-min Rain = 0
KTUR 131630Z 18005KT 02/M04 A3037 RMK A01 T00231040  RH  064%=      5-min Rain = 0
KTUR 131635Z 20004KT 02/M04 A3037 RMK A01 T00241041  RH  063%=      5-min Rain = 0
KTUR 131640Z 18003KT 03/M04 A3036 RMK A01 T00261039  RH  063%=      5-min Rain = 0
KTUR 131645Z 18004KT 03/M03 A3036 RMK A01 T00311033  RH  063%=      5-min Rain = 0
KTUR 131650Z 18005KT 03/M03 A3036 RMK A01 T00331031  RH  063%=      5-min Rain = 0
KTUR 131655Z 17006KT 04/M03 A3036 RMK A01 T00361027  RH  064%=      5-min Rain = 0
KTUR 131700Z 19005KT 04/M03 A3035 RMK A01 T00361027  RH  064%=      5-min Rain = 0
KTUR 131705Z 18005KT 04/M03 A3035 RMK A01 T00371027  RH  064%=      5-min Rain = 0
KTUR 131710Z 18006KT 04/M02 A3035 RMK A01 T00391024  RH  064%=      5-min Rain = 0
KTUR 131715Z 18005KT 04/M02 A3035 RMK A01 T00421023  RH  064%=      5-min Rain = 0
KTUR 131720Z 17005KT 04/M02 A3035 RMK A01 T00441019  RH  064%=      5-min Rain = 0
KTUR 131725Z 17005KT 05/M02 A3035 RMK A01 T00481018  RH  063%=      5-min Rain = 0
KTUR 131730Z 17005KT 05/M01 A3035 RMK A01 T00471014  RH  065%=      5-min Rain = 0
KTUR 131735Z 16005KT 05/M01 A3034 RMK A01 T00481014  RH  065%=      5-min Rain = 0
KTUR 131740Z 16004KT 05/M02 A3035 RMK A01 T00491015  RH  064%=      5-min Rain = 0
KTUR 131745Z 16003KT 05/M01 A3034 RMK A01 T00511012  RH  064%=      5-min Rain = 0
KTUR 131750Z 15005KT 05/M01 A3034 RMK A01 T00531011  RH  064%=      5-min Rain = 0
KTUR 131755Z 18005KT 06/M01 A3034 RMK A01 T00591005  RH  064%=      5-min Rain = 0
KTUR 131800Z 16005KT 06/M01 A3034 RMK A01 T00611005  RH  063%=      5-min Rain = 0
KTUR 131805Z 14006KT 07/00 A3033 RMK A01 T00660000  RH  064%=      5-min Rain = 0
KTUR 131810Z 16006KT 07/00 A3033 RMK A01 T00690001  RH  062%=      5-min Rain = 0
KTUR 131815Z 16006KT 07/00 A3032 RMK A01 T00720002  RH  062%=      5-min Rain = 0
KTUR 131820Z 16007KT 08/01 A3032 RMK A01 T00770005  RH  061%=      5-min Rain = 0
KTUR 131825Z 17009KT 08/01 A3032 RMK A01 T00770007  RH  062%=      5-min Rain = 0
KTUR 131830Z 16009KT 08/01 A3031 RMK A01 T00820007  RH  060%=      5-min Rain = 0
KTUR 131835Z 15009KT 08/01 A3031 RMK A01 T00820007  RH  060%=      5-min Rain = 0
KTUR 131840Z 14008KT 08/01 A3031 RMK A01 T00820007  RH  060%=      5-min Rain = 0
KTUR 131845Z 16009KT 08/01 A303 RMK A01 T00830010  RH  061%=      5-min Rain = 0
KTUR 131850Z 15006KT 08/01 A303 RMK A01 T00840010  RH  061%=      5-min Rain = 0
KTUR 131855Z 14008KT 09/01 A303 RMK A01 T00870011  RH  059%=      5-min Rain = 0
KTUR 131900Z 14007G12KT 09/01 A3029 RMK A01 T00890009  RH  058%=      5-min Rain = 0
KTUR 131905Z 16008KT 09/01 A3029 RMK A01 T00940009  RH  056%=      5-min Rain = 0
KTUR 131910Z 14008G13KT 09/01 A3028 RMK A01 T00940008  RH  055%=      5-min Rain = 0
KTUR 131915Z 14008KT 10/01 A3028 RMK A01 T00950009  RH  056%=      5-min Rain = 0
KTUR 131920Z 15007G12KT 10/01 A3028 RMK A01 T00960009  RH  056%=      5-min Rain = 0
KTUR 131925Z 15007G12KT 10/01 A3028 RMK A01 T01010013  RH  055%=      5-min Rain = 0
KTUR 131930Z 16009G15KT 11/01 A3027 RMK A01 T01070014  RH  053%=      5-min Rain = 0
KTUR 131935Z 16010KT 11/02 A3027 RMK A01 T01100016  RH  053%=      5-min Rain = 0
KTUR 131940Z 17010KT 11/02 A3027 RMK A01 T01100015  RH  053%=      5-min Rain = 0
KTUR 131945Z 17011KT 11/02 A3026 RMK A01 T01110015  RH  052%=      5-min Rain = 0
KTUR 131950Z 17011KT 11/01 A3027 RMK A01 T01130014  RH  051%=      5-min Rain = 0
KTUR 131955Z 16010G15KT 12/01 A3026 RMK A01 T01150013  RH  050%=      5-min Rain = 0
KTUR 132000Z 16011KT 11/01 A3026 RMK A01 T01140013  RH  050%=      5-min Rain = 0
KTUR 132005Z 15011KT 12/01 A3026 RMK A01 T01190010  RH  048%=      5-min Rain = 0
KTUR 132010Z 15010KT 12/01 A3026 RMK A01 T01180010  RH  048%=      5-min Rain = 0
KTUR 132015Z 16010G16KT 12/01 A3025 RMK A01 T01160011  RH  049%=      5-min Rain = 0
KTUR 132020Z 16010G15KT 12/01 A3025 RMK A01 T01170014  RH  050%=      5-min Rain = 0
KTUR 132025Z 16010G15KT 13/02 A3025 RMK A01 T01250018  RH  048%=      5-min Rain = 0
KTUR 132030Z 16011KT 13/02 A3025 RMK A01 T01280022  RH  049%=      5-min Rain = 0
KTUR 132035Z 16011KT 13/03 A3025 RMK A01 T01330025  RH  048%=      5-min Rain = 0
KTUR 132040Z 16011KT 14/03 A3024 RMK A01 T01350025  RH  048%=      5-min Rain = 0
KTUR 132045Z 15009KT 14/02 A3024 RMK A01 T01370024  RH  047%=      5-min Rain = 0
KTUR 132050Z 16008G14KT 14/03 A3024 RMK A01 T01390028  RH  048%=      5-min Rain = 0
KTUR 132055Z 17012KT 14/03 A3024 RMK A01 T01430026  RH  046%=      5-min Rain = 0
KTUR 132100Z 18009G14KT 14/03 A3023 RMK A01 T01410026  RH  046%=      5-min Rain = 0
KTUR 132105Z 18012KT 14/03 A3023 RMK A01 T01440026  RH  045%=      5-min Rain = 0
KTUR 132110Z 18008G13KT 15/03 A3023 RMK A01 T01450027  RH  046%=      5-min Rain = 0
KTUR 132115Z 19012G17KT 15/03 A3023 RMK A01 T01490026  RH  044%=      5-min Rain = 0
KTUR 132120Z 17009KT 15/03 A3023 RMK A01 T01500026  RH  044%=      5-min Rain = 0
KTUR 132125Z 18012G17KT 15/03 A3022 RMK A01 T01510026  RH  043%=      5-min Rain = 0
KTUR 132130Z 18013G19KT 15/03 A3022 RMK A01 T01510026  RH  043%=      5-min Rain = 0
KTUR 132135Z 19011KT 15/03 A3022 RMK A01 T01510026  RH  044%=      5-min Rain = 0
KTUR 132140Z 18011KT 15/03 A3022 RMK A01 T01490026  RH  044%=      5-min Rain = 0
KTUR 132145Z 17013G18KT 15/03 A3022 RMK A01 T01500025  RH  043%=      5-min Rain = 0
KTUR 132150Z 18012KT 15/02 A3022 RMK A01 T01510024  RH  043%=      5-min Rain = 0
KTUR 132155Z 19012KT 15/02 A3022 RMK A01 T01510023  RH  043%=      5-min Rain = 0
KTUR 132200Z 17012KT 15/02 A3022 RMK A01 T01490022  RH  043%=      5-min Rain = 0
KTUR 132205Z 18013KT 15/02 A3022 RMK A01 T01500022  RH  042%=      5-min Rain = 0
KTUR 132210Z 18012KT 15/02 A3022 RMK A01 T01500021  RH  042%=      5-min Rain = 0
KTUR 132215Z 18012KT 15/02 A3023 RMK A01 T01510021  RH  042%=      5-min Rain = 0
KTUR 132220Z 18012KT 15/02 A3022 RMK A01 T01510020  RH  041%=      5-min Rain = 0
KTUR 132225Z 18011KT 15/02 A3022 RMK A01 T01540019  RH  041%=      5-min Rain = 0
KTUR 132230Z 18012KT 15/02 A3022 RMK A01 T01540018  RH  040%=      5-min Rain = 0
KTUR 132235Z 18012G17KT 15/02 A3022 RMK A01 T01520018  RH  041%=      5-min Rain = 0
KTUR 132240Z 18012KT 15/02 A3022 RMK A01 T01510017  RH  041%=      5-min Rain = 0
KTUR 132245Z 18013KT 15/02 A3022 RMK A01 T01520017  RH  040%=      5-min Rain = 0
KTUR 132250Z 18012KT 15/02 A3022 RMK A01 T01530016  RH  040%=      5-min Rain = 0
KTUR 132255Z 18012KT 15/01 A3021 RMK A01 T01520014  RH  040%=      5-min Rain = 0
KTUR 132300Z 19011KT 15/01 A3021 RMK A01 T01520014  RH  039%=      5-min Rain = 0
KTUR 132305Z 18012KT 15/01 A3022 RMK A01 T01530012  RH  039%=      5-min Rain = 0
KTUR 132310Z 18011KT 15/01 A3022 RMK A01 T01520010  RH  039%=      5-min Rain = 0
KTUR 132315Z 18012KT 15/01 A3022 RMK A01 T01510009  RH  039%=      5-min Rain = 0
KTUR 132320Z 18013KT 15/01 A3022 RMK A01 T01510008  RH  038%=      5-min Rain = 0
KTUR 132325Z 18011KT 15/01 A3022 RMK A01 T01500007  RH  038%=      5-min Rain = 0
KTUR 132330Z 18013KT 15/01 A3022 RMK A01 T01500007  RH  038%=      5-min Rain = 0
KTUR 132335Z 18013KT 15/01 A3022 RMK A01 T01480008  RH  039%=      5-min Rain = 0
KTUR 132340Z 19012KT 15/01 A3022 RMK A01 T01460008  RH  039%=      5-min Rain = 0
KTUR 132345Z 19013KT 14/01 A3022 RMK A01 T01440010  RH  041%=      5-min Rain = 0
KTUR 132350Z 19011KT 14/01 A3022 RMK A01 T01430011  RH  041%=      5-min Rain = 0
KTUR 132355Z 18012KT 14/01 A3022 RMK A01 T01400011  RH  042%=      5-min Rain = 0
KTUR 140000Z 18011KT 14/01 A3022 RMK A01 T01380011  RH  043%=      5-min Rain = 0
KTUR 140005Z 18010KT 14/01 A3022 RMK A01 T01360011  RH  043%=      5-min Rain = 0
KTUR 140010Z 18010KT 13/01 A3022 RMK A01 T01340010  RH  043%=      5-min Rain = 0
KTUR 140015Z 17010KT 13/01 A3022 RMK A01 T01310011  RH  044%=      5-min Rain = 0
KTUR 140020Z 17009KT 13/01 A3022 RMK A01 T01280010  RH  045%=      5-min Rain = 0
KTUR 140025Z 17009KT 13/01 A3022 RMK A01 T01260010  RH  046%=      5-min Rain = 0
KTUR 140030Z 17008KT 12/01 A3022 RMK A01 T01210010  RH  047%=      5-min Rain = 0
KTUR 140035Z 17008KT 12/01 A3022 RMK A01 T01170009  RH  048%=      5-min Rain = 0
KTUR 140040Z 17008KT 11/01 A3022 RMK A01 T01130008  RH  049%=      5-min Rain = 0
KTUR 140045Z 17008KT 11/01 A3022 RMK A01 T01100007  RH  050%=      5-min Rain = 0
KTUR 140050Z 18009KT 11/01 A3022 RMK A01 T01100008  RH  050%=      5-min Rain = 0
KTUR 140055Z 18009KT 11/01 A3022 RMK A01 T01100008  RH  050%=      5-min Rain = 0
KTUR 140100Z 18009KT 11/01 A3022 RMK A01 T01070007  RH  051%=      5-min Rain = 0
KTUR 140105Z 18009KT 10/01 A3022 RMK A01 T01030006  RH  051%=      5-min Rain = 0
KTUR 140110Z 18009KT 10/01 A3022 RMK A01 T01000006  RH  053%=      5-min Rain = 0
KTUR 140115Z 18008KT 10/01 A3022 RMK A01 T00980006  RH  053%=      5-min Rain = 0
KTUR 140120Z 18008KT 09/01 A3022 RMK A01 T00940005  RH  054%=      5-min Rain = 0
KTUR 140125Z 18008KT 09/01 A3022 RMK A01 T00930006  RH  055%=      5-min Rain = 0
KTUR 140130Z 18008KT 09/01 A3022 RMK A01 T00910006  RH  056%=      5-min Rain = 0
KTUR 140135Z 18009KT 09/01 A3022 RMK A01 T00900007  RH  057%=      5-min Rain = 0
KTUR 140140Z 18010KT 09/01 A3022 RMK A01 T00890008  RH  057%=      5-min Rain = 0
KTUR 140145Z 18010KT 09/01 A3023 RMK A01 T00900009  RH  057%=      5-min Rain = 0
KTUR 140150Z 18010KT 09/01 A3023 RMK A01 T00890009  RH  058%=      5-min Rain = 0
KTUR 140155Z 18010KT 09/01 A3023 RMK A01 T00870009  RH  059%=      5-min Rain = 0
KTUR 140200Z 18010KT 08/01 A3023 RMK A01 T00840008  RH  059%=      5-min Rain = 0
KTUR 140205Z 18009KT 08/01 A3023 RMK A01 T00840009  RH  060%=      5-min Rain = 0
KTUR 140210Z 18009KT 08/01 A3023 RMK A01 T00830008  RH  060%=      5-min Rain = 0
KTUR 140215Z 18009KT 08/01 A3023 RMK A01 T00820009  RH  061%=      5-min Rain = 0
KTUR 140220Z 18008KT 08/01 A3023 RMK A01 T00830010  RH  061%=      5-min Rain = 0
KTUR 140225Z 19008KT 08/01 A3023 RMK A01 T00810010  RH  062%=      5-min Rain = 0
KTUR 140230Z 19008KT 08/01 A3023 RMK A01 T00750008  RH  063%=      5-min Rain = 0
KTUR 140235Z 18009KT 07/01 A3023 RMK A01 T00740009  RH  064%=      5-min Rain = 0
KTUR 140240Z 18010KT 07/01 A3023 RMK A01 T00740009  RH  064%=      5-min Rain = 0
KTUR 140245Z 19009KT 07/01 A3023 RMK A01 T00740010  RH  065%=      5-min Rain = 0
KTUR 140250Z 18008KT 07/01 A3024 RMK A01 T00730009  RH  065%=      5-min Rain = 0
KTUR 140255Z 18006KT 07/01 A3024 RMK A01 T00690008  RH  065%=      5-min Rain = 0
KTUR 140300Z 15006KT 07/01 A3024 RMK A01 T00690008  RH  066%=      5-min Rain = 0
KTUR 140305Z 16007KT 07/01 A3024 RMK A01 T00670007  RH  066%=      5-min Rain = 0
KTUR 140310Z 16006KT 07/01 A3023 RMK A01 T00670009  RH  067%=      5-min Rain = 0
KTUR 140315Z 16007KT 07/01 A3024 RMK A01 T00690011  RH  067%=      5-min Rain = 0
KTUR 140320Z 17008KT 07/01 A3024 RMK A01 T00700013  RH  068%=      5-min Rain = 0
KTUR 140325Z 17009KT 07/01 A3024 RMK A01 T00720014  RH  067%=      5-min Rain = 0
KTUR 140330Z 17009KT 07/02 A3023 RMK A01 T00730016  RH  068%=      5-min Rain = 0
KTUR 140335Z 16008KT 07/02 A3023 RMK A01 T00730016  RH  068%=      5-min Rain = 0
KTUR 140340Z 17008KT 07/02 A3024 RMK A01 T00720017  RH  069%=      5-min Rain = 0
KTUR 140345Z 17008KT 07/02 A3023 RMK A01 T00710015  RH  068%=      5-min Rain = 0
KTUR 140350Z 18007KT 07/01 A3023 RMK A01 T00680014  RH  069%=      5-min Rain = 0
KTUR 140355Z 17007KT 07/01 A3023 RMK A01 T00650012  RH  070%=      5-min Rain = 0
KTUR 140400Z 17009KT 06/01 A3023 RMK A01 T00630012  RH  071%=      5-min Rain = 0
KTUR 140405Z 16009KT 07/02 A3023 RMK A01 T00650016  RH  072%=      5-min Rain = 0
KTUR 140410Z 17008KT 07/02 A3023 RMK A01 T00680017  RH  071%=      5-min Rain = 0
KTUR 140415Z 17007KT 07/02 A3023 RMK A01 T00670016  RH  071%=      5-min Rain = 0
KTUR 140420Z 17006KT 06/02 A3023 RMK A01 T00640015  RH  072%=      5-min Rain = 0
KTUR 140425Z 17006KT 06/01 A3023 RMK A01 T00620014  RH  072%=      5-min Rain = 0
KTUR 140430Z 16007KT 06/01 A3023 RMK A01 T00590013  RH  073%=      5-min Rain = 0
KTUR 140435Z 16008KT 06/01 A3023 RMK A01 T00570012  RH  074%=      5-min Rain = 0
KTUR 140440Z 17009KT 06/01 A3022 RMK A01 T00560013  RH  075%=      5-min Rain = 0
KTUR 140445Z 17009KT 06/01 A3022 RMK A01 T00570013  RH  075%=      5-min Rain = 0
KTUR 140450Z 16008KT 06/02 A3022 RMK A01 T00580015  RH  075%=      5-min Rain = 0
KTUR 140455Z 17007KT 06/02 A3022 RMK A01 T00600017  RH  074%=      5-min Rain = 0
KTUR 140500Z 16006KT 06/02 A3022 RMK A01 T00630018  RH  074%=      5-min Rain = 0
KTUR 140505Z 16007KT 06/02 A3021 RMK A01 T00620017  RH  074%=      5-min Rain = 0
KTUR 140510Z 16007KT 06/02 A3022 RMK A01 T00610016  RH  074%=      5-min Rain = 0
KTUR 140515Z 16007KT 06/02 A3022 RMK A01 T00600016  RH  074%=      5-min Rain = 0
KTUR 140520Z 15006KT 06/02 A3021 RMK A01 T00590017  RH  075%=      5-min Rain = 0
KTUR 140525Z 15006KT 06/02 A3021 RMK A01 T00590017  RH  075%=      5-min Rain = 0
KTUR 140530Z 16007KT 06/02 A3021 RMK A01 T00570016  RH  076%=      5-min Rain = 0
KTUR 140535Z 17006KT 05/01 A3021 RMK A01 T00530012  RH  076%=      5-min Rain = 0
KTUR 140540Z 17003KT 05/01 A3021 RMK A01 T00470009  RH  077%=      5-min Rain = 0
KTUR 140545Z 19003KT 04/01 A302 RMK A01 T00440007  RH  078%=      5-min Rain = 0
KTUR 140550Z 21003KT 04/01 A3021 RMK A01 T00440007  RH  078%=      5-min Rain = 0
KTUR 140555Z 21004KT 05/01 A3021 RMK A01 T00470009  RH  078%=      5-min Rain = 0

Page generated in 0.0093 seconds.